Neuruppin, Germany

6:58 AM CEST on May 05, 2015 (GMT +0200)
Neuruppin | | Change Station
CLOSE
Current Station
Personal Weather Station
Location: Fehrbellin, BRANDENBURG
Elevation: 135 ft
Nearby Weather Stations

Elev 135 ft 52.79 °N, 12.76 °E | Updated 32 seconds ago

Overcast
Overcast
58.3 °F
Feels Like 58.3 °F
N
6.9
Wind Variable Wind from South
Gusts 10.7 mph

Today
High -- | Low -- °F
--% Chance of Precip.
Yesterday
High -- | Low -- °F
Precip. -- in
5:29 AM 8:42 PM
Full, 99% visible
Pressure 29.68 in
Visibility 6.2 miles
Clouds
Dew Point 53 °F
Humidity 82%
Rainfall 0.00 in
Snow Depth Not available.
UV Not available.
Pollen Not available.
Air Quality Not available.
Flu Activity Not available.
METAR EDDT 050450Z 13007KT 9999 -RA NSC 16/11 Q1005 NOSIG

More Conditions Fewer Conditions

Pressure 29.68 in
Visibility 6.2 miles
Clouds
Dew Point 53 °F
Humidity 82%
Rainfall 0.00 in
Snow Depth Not available.
UV Not available.
Pollen Not available.
Air Quality Not available.
Flu Activity Not available.
METAR EDDT 050450Z 13007KT 9999 -RA NSC 16/11 Q1005 NOSIG

More Conditions Fewer Conditions

10-Day Weather Forecast

Almanac

Astronomy

May. 05, 2015 Rise Set
Actual Time
Civil Twilight
Nautical Twilight
Astronomical Twilight
Moon
Length of Visible Light
Length of Day
Tomorrow will be .
, % of the Moon is Illuminated

Today's Extremes

Country Highs Country Lows

Community

WunderPhotos

Upload Photos

1,818,820 photos uploaded!

WunderBlogs® & News

Nearby

Air Quality

  Air Quality AQ Index Pollutant
Not available.

Snow Depth

Station Depth Elevation

Earthquake Activity

City Distance Mag. Time & Date
Minimum magnitude displayed is 2.5.

Coastal Water Temperatures

Place Temperature

Stations

Nearby Weather Stations

Station Location Temp. Windchill Dew Point Humidity Wind Precip. Elev Updated Type